createdAt,value
2022-08-18T00:01:44.568Z,12.23
2022-08-18T00:04:24.326Z,13.23
2022-08-18T00:07:08.870Z,13.77
2022-08-18T00:09:37.828Z,13.17
2022-08-18T00:12:19.209Z,13.50
2022-08-18T00:14:52.310Z,12.70
2022-08-18T00:17:21.346Z,14.67
2022-08-18T00:19:50.056Z,13.93
2022-08-18T00:22:32.691Z,13.60
2022-08-18T00:25:06.036Z,13.77
2022-08-18T00:27:39.338Z,13.67
2022-08-18T00:30:09.279Z,13.23
2022-08-18T00:32:42.209Z,13.33
2022-08-18T00:35:23.312Z,13.33
2022-08-18T00:37:54.377Z,13.83
2022-08-18T00:40:41.050Z,13.40
2022-08-18T00:43:12.598Z,13.33
2022-08-18T00:45:45.632Z,13.30
2022-08-18T00:48:18.798Z,14.17
2022-08-18T00:50:58.076Z,13.87
2022-08-18T00:54:00.669Z,14.30
2022-08-18T00:56:31.626Z,13.77
2022-08-18T00:59:16.257Z,13.77
2022-08-18T01:01:47.955Z,14.33
2022-08-18T01:04:26.482Z,14.00
2022-08-18T01:07:10.167Z,14.20
2022-08-18T01:09:39.901Z,13.20
2022-08-18T01:12:44.923Z,14.10
2022-08-18T01:15:04.292Z,13.97
2022-08-18T01:17:52.536Z,13.77
2022-08-18T01:20:51.611Z,12.47
2022-08-18T01:23:23.153Z,13.23
2022-08-18T01:26:06.199Z,13.47
2022-08-18T01:28:39.785Z,12.93
2022-08-18T01:31:13.279Z,12.90
2022-08-18T01:33:50.739Z,13.27
2022-08-18T01:36:24.535Z,12.93
2022-08-18T01:38:59.607Z,12.03
2022-08-18T01:41:31.509Z,13.10
2022-08-18T01:44:03.112Z,12.13
2022-08-18T01:46:37.249Z,12.47
2022-08-18T01:49:07.843Z,12.07
2022-08-18T01:51:41.095Z,12.20
2022-08-18T01:54:15.884Z,11.60
2022-08-18T01:56:47.410Z,12.23
2022-08-18T01:59:21.248Z,12.33
2022-08-18T02:01:53.422Z,12.43
2022-08-18T02:04:37.294Z,11.07
2022-08-18T02:07:10.848Z,11.43
2022-08-18T02:09:47.051Z,11.57
2022-08-18T02:12:18.621Z,11.73
2022-08-18T02:14:50.497Z,11.77
2022-08-18T02:17:22.658Z,11.40
2022-08-18T02:19:50.096Z,11.40
2022-08-18T02:22:34.958Z,11.10
2022-08-18T02:25:02.748Z,11.47
2022-08-18T02:27:33.561Z,11.40
2022-08-18T02:30:09.697Z,11.13
2022-08-18T02:32:38.775Z,11.13
2022-08-18T02:35:09.518Z,10.90
2022-08-18T02:37:45.171Z,11.37
2022-08-18T02:40:15.559Z,11.33
2022-08-18T02:42:43.427Z,10.67
2022-08-18T02:45:13.904Z,11.47
2022-08-18T02:47:45.969Z,10.93
2022-08-18T02:50:19.355Z,11.77
2022-08-18T02:52:48.152Z,10.80
2022-08-18T02:55:23.846Z,11.53
2022-08-18T02:57:54.386Z,10.80
2022-08-18T03:00:26.926Z,9.93
2022-08-18T03:02:59.055Z,11.07
2022-08-18T03:05:33.074Z,10.80
2022-08-18T03:08:01.780Z,10.27
2022-08-18T03:10:34.244Z,10.70
2022-08-18T03:13:05.854Z,11.10
2022-08-18T03:15:35.214Z,10.77
2022-08-18T03:18:03.735Z,10.40
2022-08-18T03:20:36.871Z,9.97
2022-08-18T03:23:09.813Z,10.10
2022-08-18T03:25:37.756Z,10.47
2022-08-18T03:28:07.284Z,10.67
2022-08-18T03:30:35.724Z,10.20
2022-08-18T03:33:08.024Z,9.30
2022-08-18T03:35:39.447Z,9.97
2022-08-18T03:38:07.611Z,9.97
2022-08-18T03:40:40.144Z,9.47
2022-08-18T03:43:50.371Z,9.77
2022-08-18T03:46:06.583Z,9.97
2022-08-18T03:48:39.792Z,9.33
2022-08-18T03:51:10.488Z,9.50
2022-08-18T03:53:43.236Z,9.60
2022-08-18T03:56:19.697Z,9.27
2022-08-18T03:58:54.947Z,9.23
2022-08-18T04:01:27.717Z,8.83
2022-08-18T04:04:04.731Z,10.60
2022-08-18T04:06:40.036Z,9.53
2022-08-18T04:09:11.747Z,8.50
2022-08-18T04:11:46.206Z,9.23
2022-08-18T04:14:22.969Z,8.73
2022-08-18T04:16:53.869Z,9.10
2022-08-18T04:19:27.314Z,10.17
2022-08-18T04:22:03.426Z,9.23
2022-08-18T04:24:40.935Z,8.77
2022-08-18T04:27:12.102Z,9.23
2022-08-18T04:29:51.648Z,9.00
2022-08-18T04:32:22.678Z,7.93
2022-08-18T04:35:13.675Z,7.27
2022-08-18T04:37:45.836Z,8.97
2022-08-18T04:40:25.026Z,10.17
2022-08-18T04:43:02.372Z,8.50
2022-08-18T04:45:35.107Z,8.30
2022-08-18T04:48:07.895Z,8.57
2022-08-18T04:50:43.093Z,8.30
2022-08-18T04:53:33.126Z,7.80
2022-08-18T04:56:19.356Z,7.90
2022-08-18T04:58:55.785Z,7.43
2022-08-18T05:04:16.453Z,7.63
2022-08-18T05:06:48.725Z,7.93
2022-08-18T05:09:23.159Z,7.70
2022-08-18T05:11:54.480Z,7.87
2022-08-18T05:14:27.235Z,8.47
2022-08-18T05:16:59.016Z,7.60
2022-08-18T05:19:28.907Z,7.87
2022-08-18T05:22:03.108Z,8.03
2022-08-18T05:24:37.428Z,8.37
2022-08-18T05:27:07.686Z,7.80
2022-08-18T05:29:41.864Z,8.70
2022-08-18T05:32:41.099Z,8.33
2022-08-18T05:35:09.299Z,8.63
2022-08-18T05:37:47.901Z,9.27
2022-08-18T05:40:22.077Z,14.23
2022-08-18T05:43:02.736Z,8.20
2022-08-18T05:45:36.354Z,8.10
2022-08-18T05:48:08.937Z,8.23
2022-08-18T05:50:40.329Z,10.50
2022-08-18T05:53:16.708Z,9.47
2022-08-18T05:56:23.372Z,9.83
2022-08-18T05:58:55.776Z,9.90
2022-08-18T06:01:29.124Z,8.70
2022-08-18T06:04:03.553Z,9.77
2022-08-18T06:06:43.011Z,8.80
2022-08-18T06:09:36.106Z,9.77
2022-08-18T06:12:31.055Z,9.37
2022-08-18T06:15:22.830Z,9.03
2022-08-18T06:18:08.898Z,9.60
2022-08-18T06:20:50.119Z,9.10
2022-08-18T06:23:31.767Z,8.70
2022-08-18T06:26:21.006Z,12.57
2022-08-18T06:29:10.526Z,10.57
2022-08-18T06:32:06.517Z,9.80
2022-08-18T06:35:07.772Z,8.97
2022-08-18T06:38:14.015Z,9.57
2022-08-18T06:40:44.091Z,9.53
2022-08-18T06:43:26.713Z,9.57
2022-08-18T06:45:55.138Z,8.50
2022-08-18T06:48:35.270Z,8.10
2022-08-18T06:51:03.724Z,9.10
2022-08-18T06:53:54.677Z,8.50
2022-08-18T06:56:40.320Z,14.50
2022-08-18T06:59:28.783Z,7.47
2022-08-18T07:02:18.780Z,9.13
2022-08-18T07:05:19.829Z,10.10
2022-08-18T07:08:12.642Z,7.23
2022-08-18T07:10:48.962Z,11.93
2022-08-18T07:13:31.298Z,8.40
2022-08-18T07:16:30.149Z,9.23
2022-08-18T07:19:11.322Z,9.13
2022-08-18T07:21:48.053Z,9.07
2022-08-18T07:24:25.604Z,9.13
2022-08-18T07:27:11.310Z,11.23
2022-08-18T07:29:42.741Z,11.07
2022-08-18T07:32:22.010Z,11.27
2022-08-18T07:34:55.355Z,11.03
2022-08-18T07:37:30.489Z,10.87
2022-08-18T07:40:08.936Z,10.80
2022-08-18T07:42:54.512Z,11.93
2022-08-18T07:45:44.658Z,11.53
2022-08-18T07:48:43.597Z,10.80
2022-08-18T07:51:36.027Z,10.80
2022-08-18T07:54:48.160Z,10.70
2022-08-18T07:57:42.685Z,10.27
2022-08-18T08:03:33.353Z,10.20
2022-08-18T08:06:21.080Z,101.93
2022-08-18T08:08:58.275Z,159.50
2022-08-18T08:11:33.636Z,121.17
2022-08-18T08:14:41.018Z,60.63
2022-08-18T08:17:28.213Z,36.20
2022-08-18T08:20:32.714Z,22.53
2022-08-18T08:23:11.835Z,14.77
2022-08-18T08:25:57.635Z,11.13
2022-08-18T08:28:45.117Z,10.50
2022-08-18T08:31:36.745Z,9.63
2022-08-18T08:34:23.776Z,8.87
2022-08-18T08:36:55.990Z,9.53
2022-08-18T08:39:49.051Z,8.70
2022-08-18T08:42:30.951Z,7.97
2022-08-18T08:45:12.872Z,8.70
2022-08-18T08:48:08.434Z,9.17
2022-08-18T08:50:53.296Z,9.33
2022-08-18T08:53:42.709Z,7.87
2022-08-18T08:56:13.222Z,7.90
2022-08-18T08:58:51.268Z,8.13
2022-08-18T09:01:32.713Z,8.50
2022-08-18T09:04:20.504Z,7.27
2022-08-18T09:07:09.616Z,8.53
2022-08-18T09:10:04.040Z,16.47
2022-08-18T09:12:34.677Z,45.00
2022-08-18T09:15:29.268Z,37.23
2022-08-18T09:18:00.471Z,53.53
2022-08-18T09:20:56.935Z,43.80
2022-08-18T09:23:32.129Z,36.83
2022-08-18T09:26:22.656Z,31.57
2022-08-18T09:29:07.308Z,46.57
2022-08-18T09:31:35.167Z,32.17
2022-08-18T09:34:39.696Z,18.93
2022-08-18T09:37:26.473Z,28.83
2022-08-18T09:40:59.406Z,28.03
2022-08-18T09:43:46.727Z,21.70
2022-08-18T09:46:36.351Z,28.13
2022-08-18T09:49:26.631Z,22.80
2022-08-18T09:52:02.443Z,12.70
2022-08-18T09:54:37.255Z,11.87
2022-08-18T09:57:24.358Z,11.37
2022-08-18T09:59:57.738Z,11.23
2022-08-18T10:02:37.895Z,7.67
2022-08-18T10:05:22.426Z,10.07
2022-08-18T10:07:56.002Z,6.87
2022-08-18T10:11:01.118Z,8.50
2022-08-18T10:13:49.598Z,6.30
2022-08-18T10:16:57.464Z,6.67
2022-08-18T10:19:47.942Z,8.00
2022-08-18T10:22:41.713Z,6.63
2022-08-18T10:25:22.826Z,6.40
2022-08-18T10:28:13.081Z,7.23
2022-08-18T10:30:57.501Z,6.93
2022-08-18T10:33:55.718Z,6.77
2022-08-18T10:36:46.679Z,5.77
2022-08-18T10:39:41.713Z,5.37
2022-08-18T10:42:31.680Z,6.23
2022-08-18T10:45:33.635Z,7.50
2022-08-18T10:48:24.496Z,7.93
2022-08-18T10:51:21.665Z,9.00
2022-08-18T10:54:09.347Z,7.40
2022-08-18T10:59:57.740Z,7.67
2022-08-18T11:02:44.385Z,7.27
2022-08-18T11:05:15.192Z,5.83
2022-08-18T11:07:53.379Z,7.73
2022-08-18T11:11:26.912Z,6.53
2022-08-18T11:14:21.892Z,7.97
2022-08-18T11:17:10.362Z,7.50
2022-08-18T11:19:45.259Z,7.57
2022-08-18T11:25:28.086Z,8.90
2022-08-18T11:28:10.478Z,9.10
2022-08-18T11:30:44.423Z,8.57
2022-08-18T11:36:14.046Z,6.40
2022-08-18T11:38:59.424Z,8.07
2022-08-18T11:41:48.631Z,7.13
2022-08-18T11:44:27.246Z,7.30
2022-08-18T11:47:01.286Z,7.60
2022-08-18T11:49:36.077Z,6.40
2022-08-18T11:52:35.216Z,7.07
2022-08-18T11:55:14.705Z,7.03
2022-08-18T11:57:58.975Z,8.50
2022-08-18T12:00:46.392Z,7.73
2022-08-18T12:03:29.520Z,7.50
2022-08-18T12:09:08.708Z,7.10
2022-08-18T12:11:41.297Z,7.63
2022-08-18T12:14:31.667Z,6.27
2022-08-18T12:17:08.058Z,7.37
2022-08-18T12:19:40.493Z,6.30
2022-08-18T12:22:23.588Z,8.87
2022-08-18T12:24:59.496Z,8.13
2022-08-18T12:27:37.058Z,6.90
2022-08-18T12:30:16.591Z,6.73
2022-08-18T12:32:49.702Z,6.53
2022-08-18T12:35:22.561Z,6.13
2022-08-18T12:37:59.486Z,6.17
2022-08-18T12:40:31.817Z,7.37
2022-08-18T12:43:02.763Z,8.43
2022-08-18T12:45:31.769Z,7.83
2022-08-18T12:48:04.029Z,10.83
2022-08-18T12:50:49.767Z,7.33
2022-08-18T12:53:29.804Z,7.40
2022-08-18T12:56:28.032Z,7.27
2022-08-18T12:58:56.250Z,6.10
2022-08-18T13:01:26.313Z,5.23
2022-08-18T13:04:10.958Z,5.30
2022-08-18T13:06:59.260Z,5.43
2022-08-18T13:12:16.851Z,4.97
2022-08-18T13:14:47.625Z,5.03
2022-08-18T13:17:32.224Z,5.33
2022-08-18T13:22:55.647Z,5.40
2022-08-18T13:25:39.483Z,5.80
2022-08-18T13:28:12.564Z,4.97
2022-08-18T13:31:04.073Z,4.43
2022-08-18T13:33:56.392Z,6.93
2022-08-18T13:36:47.871Z,4.63
2022-08-18T13:39:18.433Z,5.10
2022-08-18T13:41:51.085Z,4.87
2022-08-18T13:44:25.881Z,5.03
2022-08-18T13:47:02.110Z,5.90
2022-08-18T13:49:32.034Z,5.77
2022-08-18T13:52:08.324Z,6.20
2022-08-18T13:54:47.401Z,5.40
2022-08-18T13:57:22.044Z,7.10
2022-08-18T13:59:53.178Z,5.27
2022-08-18T14:02:26.662Z,4.90
2022-08-18T14:04:59.790Z,5.80
2022-08-18T14:07:31.703Z,5.83
2022-08-18T14:10:13.194Z,7.97
2022-08-18T14:12:46.459Z,6.17
2022-08-18T14:15:19.435Z,9.03
2022-08-18T14:17:51.585Z,5.33
2022-08-18T14:20:48.355Z,7.43
2022-08-18T14:23:36.276Z,6.43
2022-08-18T14:26:28.266Z,6.30
2022-08-18T14:28:59.640Z,6.70
2022-08-18T14:31:27.012Z,5.77
2022-08-18T14:34:04.004Z,8.57
2022-08-18T14:36:34.831Z,6.20
2022-08-18T14:39:12.266Z,6.00
2022-08-18T14:41:54.664Z,5.90
2022-08-18T14:44:32.347Z,6.90
2022-08-18T14:47:01.254Z,5.27
2022-08-18T14:49:34.485Z,5.47
2022-08-18T14:52:17.968Z,5.10
2022-08-18T14:54:51.876Z,5.47
2022-08-18T14:57:25.596Z,5.50
2022-08-18T14:59:57.582Z,5.27
2022-08-18T15:02:27.033Z,5.10
2022-08-18T15:04:59.409Z,5.23
2022-08-18T15:07:32.889Z,5.53
2022-08-18T15:10:14.379Z,6.77
2022-08-18T15:12:46.835Z,7.10
2022-08-18T15:15:24.933Z,7.43
2022-08-18T15:17:54.932Z,6.33
2022-08-18T15:20:32.676Z,5.60
2022-08-18T15:23:28.232Z,6.43
2022-08-18T15:25:59.729Z,6.30
2022-08-18T15:28:28.309Z,6.10
2022-08-18T15:33:52.755Z,5.17
2022-08-18T15:36:29.246Z,5.43
2022-08-18T15:39:06.255Z,5.53
2022-08-18T15:41:45.550Z,6.10
2022-08-18T15:44:16.356Z,6.00
2022-08-18T15:46:53.104Z,5.70
2022-08-18T15:49:27.413Z,5.93
2022-08-18T15:51:58.991Z,4.67
2022-08-18T15:54:29.040Z,5.23
2022-08-18T15:56:58.797Z,6.40
2022-08-18T15:59:40.027Z,4.90
2022-08-18T16:02:11.802Z,5.17
2022-08-18T16:04:44.951Z,4.70
2022-08-18T16:07:25.087Z,4.40
2022-08-18T16:10:13.271Z,5.80
2022-08-18T16:12:45.704Z,5.27
2022-08-18T16:15:25.446Z,4.80
2022-08-18T16:18:00.263Z,4.70
2022-08-18T16:20:29.734Z,5.10
2022-08-18T16:23:02.399Z,5.00
2022-08-18T16:25:34.887Z,5.10
2022-08-18T16:28:07.031Z,5.70
2022-08-18T16:30:40.246Z,5.33
2022-08-18T16:33:09.221Z,5.23
2022-08-18T16:35:40.230Z,5.27
2022-08-18T16:38:19.094Z,5.80
2022-08-18T16:40:51.322Z,5.17
2022-08-18T16:43:23.090Z,4.57
2022-08-18T16:45:52.608Z,4.43
2022-08-18T16:51:05.691Z,6.27
2022-08-18T16:53:40.251Z,5.83
2022-08-18T16:56:18.062Z,6.13
2022-08-18T16:59:09.317Z,5.60
2022-08-18T17:01:59.618Z,5.43
2022-08-18T17:04:30.443Z,5.40
2022-08-18T17:07:02.910Z,5.30
2022-08-18T17:09:35.003Z,5.27
2022-08-18T17:12:05.924Z,4.97
2022-08-18T17:14:38.459Z,5.07
2022-08-18T17:17:07.616Z,4.67
2022-08-18T17:19:40.401Z,4.80
2022-08-18T17:22:09.787Z,5.20
2022-08-18T17:24:49.407Z,5.90
2022-08-18T17:27:37.250Z,5.20
2022-08-18T17:30:18.579Z,5.03
2022-08-18T17:35:39.606Z,4.67
2022-08-18T17:38:35.749Z,5.50
2022-08-18T17:41:07.789Z,5.73
2022-08-18T17:46:25.976Z,5.90
2022-08-18T17:49:09.329Z,9.20
2022-08-18T17:51:55.144Z,5.30
2022-08-18T17:54:28.337Z,6.50
2022-08-18T17:57:10.711Z,6.40
2022-08-18T17:59:51.880Z,5.43
2022-08-18T18:02:30.139Z,5.83
2022-08-18T18:07:53.206Z,8.77
2022-08-18T18:11:05.283Z,5.97
2022-08-18T18:13:37.656Z,7.83
2022-08-18T18:16:25.223Z,6.13
2022-08-18T18:19:03.939Z,7.33
2022-08-18T18:21:57.592Z,5.50
2022-08-18T18:24:32.106Z,5.43
2022-08-18T18:27:05.310Z,7.87
2022-08-18T18:29:38.435Z,5.30
2022-08-18T18:32:13.534Z,7.93
2022-08-18T18:34:50.600Z,6.37
2022-08-18T18:37:34.640Z,5.87
2022-08-18T18:40:08.769Z,6.63
2022-08-18T18:42:39.010Z,5.43
2022-08-18T18:45:16.519Z,5.43
2022-08-18T18:48:09.957Z,5.97
2022-08-18T18:51:10.508Z,7.27
2022-08-18T18:54:06.690Z,5.80
2022-08-18T18:56:48.937Z,6.43
2022-08-18T18:59:23.871Z,6.73
2022-08-18T19:02:32.867Z,4.90
2022-08-18T19:05:06.206Z,7.10
2022-08-18T19:10:27.128Z,9.23
2022-08-18T19:13:03.450Z,8.80
2022-08-18T19:15:38.221Z,7.77
2022-08-18T19:18:23.926Z,9.40
2022-08-18T19:22:03.083Z,6.33
2022-08-18T19:24:07.303Z,7.00
2022-08-18T19:26:43.481Z,7.47
2022-08-18T19:29:17.305Z,10.23
2022-08-18T19:32:16.358Z,7.30
2022-08-18T19:34:55.823Z,8.87
2022-08-18T19:37:47.908Z,7.30
2022-08-18T19:40:46.177Z,6.93
2022-08-18T19:43:41.559Z,7.83
2022-08-18T19:46:30.828Z,7.37
2022-08-18T19:49:12.129Z,7.53
2022-08-18T19:51:45.050Z,7.87
2022-08-18T19:54:34.156Z,8.97
2022-08-18T19:57:07.687Z,9.80
2022-08-18T19:59:49.175Z,7.27
2022-08-18T20:02:19.847Z,8.33
2022-08-18T20:05:10.845Z,6.53
2022-08-18T20:07:59.616Z,6.93
2022-08-18T20:10:47.776Z,7.00
2022-08-18T20:13:43.874Z,6.73
2022-08-18T20:16:28.677Z,6.80
2022-08-18T20:19:32.292Z,6.97
2022-08-18T20:22:10.521Z,7.30
2022-08-18T20:25:06.842Z,6.00
2022-08-18T20:27:44.822Z,5.93
2022-08-18T20:30:24.714Z,6.33
2022-08-18T20:33:07.492Z,7.77
2022-08-18T20:35:45.847Z,6.60
2022-08-18T20:41:31.723Z,7.20
2022-08-18T20:44:28.850Z,8.43
2022-08-18T20:47:24.523Z,8.07
2022-08-18T20:50:13.524Z,7.70
2022-08-18T20:53:11.240Z,7.47
2022-08-18T20:55:53.093Z,8.10
2022-08-18T20:58:29.166Z,9.73
2022-08-18T21:01:04.416Z,7.03
2022-08-18T21:03:49.241Z,5.93
2022-08-18T21:06:21.298Z,7.97
2022-08-18T21:08:53.101Z,11.00
2022-08-18T21:11:43.766Z,6.73
2022-08-18T21:14:18.083Z,6.57
2022-08-18T21:16:49.937Z,6.30
2022-08-18T21:19:37.072Z,8.20
2022-08-18T21:22:05.536Z,7.80
2022-08-18T21:24:39.447Z,6.87
2022-08-18T21:27:26.303Z,7.77
2022-08-18T21:30:01.943Z,7.43
2022-08-18T21:32:33.468Z,8.43
2022-08-18T21:35:10.522Z,7.97
2022-08-18T21:37:48.226Z,7.73
2022-08-18T21:40:17.580Z,7.80
2022-08-18T21:42:53.340Z,7.40
2022-08-18T21:45:25.542Z,8.27
2022-08-18T21:48:05.630Z,8.07
2022-08-18T21:50:35.507Z,8.77
2022-08-18T21:53:23.175Z,8.63
2022-08-18T21:55:55.515Z,8.43
2022-08-18T21:58:33.981Z,8.17
2022-08-18T22:01:16.407Z,7.50
2022-08-18T22:04:08.185Z,8.57
2022-08-18T22:06:44.154Z,8.53
2022-08-18T22:09:39.176Z,8.30
2022-08-18T22:12:46.705Z,7.83
2022-08-18T22:15:26.304Z,7.40
2022-08-18T22:18:23.556Z,7.57
2022-08-18T22:20:52.257Z,7.37
2022-08-18T22:23:56.553Z,7.50
2022-08-18T22:26:29.403Z,7.30
2022-08-18T22:29:18.946Z,8.63
2022-08-18T22:31:59.277Z,7.03
2022-08-18T22:34:31.374Z,7.67
2022-08-18T22:37:19.543Z,7.53
2022-08-18T22:39:56.322Z,7.50
2022-08-18T22:42:38.045Z,7.37
2022-08-18T22:45:10.360Z,8.03
2022-08-18T22:47:45.056Z,7.67
2022-08-18T22:50:18.450Z,7.90
2022-08-18T22:52:53.478Z,9.33
2022-08-18T22:55:23.932Z,7.47
2022-08-18T22:57:55.797Z,8.00
2022-08-18T23:00:27.382Z,7.90
2022-08-18T23:03:07.335Z,7.60
2022-08-18T23:05:36.175Z,7.93
2022-08-18T23:08:08.768Z,8.00
2022-08-18T23:10:39.314Z,8.23
2022-08-18T23:13:10.939Z,8.73
2022-08-18T23:18:33.097Z,8.13
2022-08-18T23:21:07.822Z,8.17
2022-08-18T23:23:41.410Z,8.40
2022-08-18T23:26:23.419Z,8.27
2022-08-18T23:28:55.583Z,8.30
2022-08-18T23:31:28.195Z,8.00
2022-08-18T23:33:57.268Z,8.37
2022-08-18T23:36:27.988Z,8.17
2022-08-18T23:38:59.706Z,8.03
2022-08-18T23:41:32.655Z,8.33
2022-08-18T23:44:02.400Z,8.33
2022-08-18T23:46:36.199Z,8.10
2022-08-18T23:49:19.507Z,8.40
2022-08-18T23:51:49.016Z,8.80
2022-08-18T23:54:21.683Z,8.10
2022-08-18T23:56:51.655Z,8.07
2022-08-18T23:59:29.093Z,7.47
